Metar Cercanos

 

LEPA - Palma De Mallorc, Spain
Distance from station: ONO 38km
Actualización: Sun, 28-Nov-2021 7:00pm CET
Few Clouds
Few Clouds
 Viento del NO
Viento: NO 41 km/h, Racha: 63 km/h
Temperatura: 12°C
Rocío: 1°C
Humedad: 47%
Barómetro: 1007 hPa
Clouds: Few Clouds
Visibility: 10 km
Cloud details: Few Clouds 792 m
2021/11/28 18:00 LEPA 281800Z 31022G34KT 280V340 9999 FEW026 12/01 Q1007 NOSIG
LEMH - Mahon/Menorca Is, Spain
Distance from station: ENE 105km
Actualización: Sun, 28-Nov-2021 7:21pm CET
Small hail showers, Few clouds
Small hail showers, Few clouds
 Viento del NNO
Viento: NNO 17 km/h
Temperatura: 7°C
Sensación frio: 4°C
Rocío: 4°C
Humedad: 81%
Barómetro: 1005 hPa
Resumen: Small Hail Showers
Clouds: Few Clouds
Visibility: 10 km
Cloud details: Few Clouds 335 m
Parcialmente nuboso 884 m
Few Clouds 1067 m
2021/11/28 18:21 LEMH 281821Z 34009KT 300V010 9999 SHGS FEW011 SCT029 FEW035TCU 07/04 Q1005
 
LEIB - Ibiza/Es Codola, Spain
Distance from station: OSO 165km
Actualización: Sun, 28-Nov-2021 7:00pm CET
Few Clouds
Few Clouds
 Viento del O
Viento: O 33 km/h, Racha: 54 km/h
Temperatura: 13°C
Rocío: 2°C
Humedad: 47%
Barómetro: 1010 hPa
Clouds: Few Clouds
Visibility: 10 km
Cloud details: Few Clouds 1494 m
2021/11/28 18:00 LEIB 281800Z 28018G29KT 250V320 9999 FEW049 13/02 Q1010 WS ALL RWY NOSIG
LEBL - Barcelona Airpor, Spain
Distance from station: NNO 225km
Actualización: Sun, 28-Nov-2021 7:00pm CET
Few Clouds
Few Clouds
 Viento del ONO
Viento: ONO 33 km/h
Temperatura: 9°C
Sensación frio: 5°C
Rocío: 0°C
Humedad: 54%
Barómetro: 1006 hPa
Clouds: Few Clouds
Visibility: 10 km
Cloud details: Few Clouds 610 m
2021/11/28 18:00 LEBL 281800Z 29018KT 9999 FEW020 09/M00 Q1006 NOSIG
 
LEVC - Valencia (civ/Mi, Spain
Distance from station: NO 188km
Actualización: Sun, 28-Nov-2021 7:00pm CET
Few Clouds
Few Clouds
 Viento del SO
Viento: SO 17 km/h
Temperatura: 11°C
Rocío: -2°C
Humedad: 41%
Barómetro: 1012 hPa
Clouds: Few Clouds
Visibility: 10 km
Cloud details: Few Clouds 1981 m
2021/11/28 18:00 LEVC 281800Z 23009KT 200V260 9999 FEW065 11/M02 Q1012 NOSIG
LEGE - Gerona/Costa Bra, Spain
Distance from station: N 276km
Actualización: Sun, 28-Nov-2021 7:00pm CET
Despejado
Despejado
 Viento del NNO
Viento: NNO 7 km/h
Temperatura: 6°C
Sensación frio: 4°C
Rocío: -4°C
Humedad: 49%
Barómetro: 1005 hPa
Resumen: Despejado
Visibility: greater than 10 km
2021/11/28 18:00 LEGE 281800Z 34004KT 290V020 CAVOK 06/M04 Q1005
 
LEAL - Alicante/El Alte, Spain
Distance from station: OSO 344km
Actualización: Sun, 28-Nov-2021 7:00pm CET
Despejado
Despejado
 Viento del OSO
Viento: OSO 11 km/h
Temperatura: 10°C
Sensación frio: 8°C
Rocío: -2°C
Humedad: 43%
Barómetro: 1015 hPa
Resumen: Despejado
Visibility: greater than 10 km
2021/11/28 18:00 LEAL 281800Z 25006KT 220V280 CAVOK 10/M02 Q1015 NOSIG
LEAM - Almeria Airport, Spain
Distance from station: SSO 56km
Actualización: Sun, 28-Nov-2021 7:00pm CET
Despejado
Despejado
 Viento del NNO
Viento: NNO 22 km/h
Temperatura: 14°C
Rocío: -6°C
Humedad: 25%
Barómetro: 1017 hPa
Resumen: Despejado
Visibility: greater than 10 km
2021/11/28 18:00 LEAM 281800Z 33012KT 290V350 CAVOK 14/M06 Q1017
 
LEZG - Zaragoza (mil/Ci, Spain
Distance from station: NO 431km
Actualización: Sun, 28-Nov-2021 7:00pm CET
Lluvia débil, Cubierto
Lluvia débil, Cubierto
 Viento del O
Viento: O 22 km/h
Temperatura: 6°C
Sensación frio: 2°C
Rocío: 4°C
Humedad: 87%
Barómetro: 1011 hPa
Resumen: Lluvia débil
Clouds: Cubierto
Visibility: 10 km
Cloud details: Cubierto 914 m
2021/11/28 18:00 LEZG 281800Z 27012KT 9999 -RA OVC030 06/04 Q1011
LEMD - Madrid/Barajas, Spain
Distance from station: ONO 234km
Actualización: Sun, 28-Nov-2021 7:00pm CET
Parcialmente nuboso
Parcialmente nuboso
 Viento del O
Viento: O 20 km/h, Racha: 44 km/h
Temperatura: 8°C
Sensación frio: 4°C
Rocío: -1°C
Humedad: 53%
Barómetro: 1015 hPa
Clouds: Parcialmente nuboso
Visibility: 10 km
Cloud details: Parcialmente nuboso 1829 m
2021/11/28 18:00 LEMD 281800Z 27011G24KT 240V300 9999 SCT060 08/M01 Q1015 NOSIG
 
LEGR - Granada Airport, Spain
Distance from station: OSO 62km
Actualización: Sun, 28-Nov-2021 7:00pm CET
Few Clouds
Few Clouds
 Viento del ONO
Viento: ONO 11 km/h
Temperatura: 5°C
Sensación frio: 2°C
Rocío: 0°C
Humedad: 70%
Barómetro: 1021 hPa
Clouds: Few Clouds
Visibility: 10 km
Cloud details: Few Clouds 1219 m
2021/11/28 18:00 LEGR 281800Z 30006KT 9999 FEW040 05/M00 Q1021
LEMG - Malaga (civ/Mil), Spain
Distance from station: OSO 227km
Actualización: Sun, 28-Nov-2021 7:00pm CET
Few Clouds
Few Clouds
 Viento del ONO
Viento: ONO 11 km/h
Temperatura: 11°C
Rocío: 0°C
Humedad: 47%
Barómetro: 1021 hPa
Clouds: Few Clouds
Visibility: 10 km
Cloud details: Few Clouds 1829 m
2021/11/28 18:00 LEMG 281800Z 30006KT 9999 FEW060 11/M00 Q1021 NOSIG
 
LEZL - Sevilla (civ/Mil, Spain
Distance from station: S 318km
Actualización: Sun, 28-Nov-2021 7:00pm CET
Despejado
Despejado
 Viento del NO
Viento: NO 11 km/h
Temperatura: 11°C
Rocío: 1°C
Humedad: 50%
Barómetro: 1022 hPa
Resumen: Despejado
Visibility: greater than 10 km
2021/11/28 18:00 LEZL 281800Z 32006KT 290V350 CAVOK 11/01 Q1022 NOSIG
LEVT - Vitoria, Spain
Distance from station: NO 226km
Actualización: Sun, 28-Nov-2021 7:00pm CET
Snow rain, Cubierto
Snow rain, Cubierto
 Viento del SO
Viento: SO 11 km/h
Temperatura: 1°C
Sensación frio: -2°C
Rocío: 1°C
Humedad: 100%
Barómetro: 1013 hPa
Resumen: Snow Rain
Clouds: Cubierto
Visibility: 6 km
Cloud details: Cubierto 396 m
2021/11/28 18:00 LEVT 281800Z 22006KT 6000 SNRA VV013 01/01 Q1013
 
LEBB - Bilbao/Sondica, Spain
Distance from station: NNO 235km
Actualización: Sun, 28-Nov-2021 7:00pm CET
Rain showers, Muy nuboso
Rain showers, Muy nuboso
 Viento del O
Viento: O 9 km/h
Temperatura: 9°C
Sensación frio: 7°C
Rocío: 8°C
Humedad: 94%
Barómetro: 1013 hPa
Resumen: Rain Showers
Clouds: Muy nuboso
Visibility: 3 km
Cloud details: Parcialmente nuboso 762 m
Parcialmente nuboso 975 m
Muy nuboso 1219 m
2021/11/28 18:00 LEBB 281800Z 26005KT 210V300 3000 SHRA SCT025TCU SCT032 BKN040 09/08 Q1013 NOSIG
LESO - San Sebastian/Fu, Spain
Distance from station: N 231km
Actualización: Sun, 28-Nov-2021 7:12pm CET
Lluvia débil, Muy nuboso
Lluvia débil, Muy nuboso
 Viento del NNO
Viento: NNO 13 km/h
Temperatura: 9°C
Sensación frio: 7°C
Rocío: 6°C
Humedad: 82%
Barómetro: 1012 hPa
Resumen: Lluvia débil
Clouds: Muy nuboso
Visibility: 10 km
Cloud details: Few Clouds 610 m
Parcialmente nuboso 914 m
Muy nuboso 1372 m
2021/11/28 18:12 LESO 281812Z 33007KT 270V040 9999 -RA FEW020 SCT030 BKN045 09/06 Q1012 RERA
 
LEVD - Valladolid(Mil/C, Spain
Distance from station: ONO 239km
Actualización: Sun, 28-Nov-2021 7:00pm CET
Parcialmente nuboso
Parcialmente nuboso
 Viento del OSO
Viento: OSO 31 km/h
Temperatura: 4°C
Sensación frio: -2°C
Rocío: 2°C
Humedad: 87%
Barómetro: 1015 hPa
Clouds: Parcialmente nuboso
Visibility: 10 km
Cloud details: Parcialmente nuboso 427 m
2021/11/28 18:00 LEVD 281800Z 25017KT 9999 SCT014 04/02 Q1015
LESA - Salamanca (civ/M, Spain
Distance from station: ONO 349km
Actualización: Sun, 28-Nov-2021 7:00pm CET
Muy nuboso
Muy nuboso
 Viento del O
Viento: O 26 km/h
Temperatura: 5°C
Sensación frio: 1°C
Rocío: 2°C
Humedad: 81%
Barómetro: 1018 hPa
Clouds: Muy nuboso
Visibility: 10 km
Cloud details: Muy nuboso 518 m
2021/11/28 18:00 LESA 281800Z 26014KT 230V290 9999 BKN017 05/02 Q1018
 
LEXJ - Santander/Paraya, Spain
Distance from station: NNO 247km
Actualización: Sun, 28-Nov-2021 7:00pm CET
Lluvia débil, Cubierto
Lluvia débil, Cubierto
 Viento del O
Viento: O 19 km/h
Temperatura: 9°C
Sensación frio: 6°C
Rocío: 8°C
Humedad: 94%
Barómetro: 1014 hPa
Resumen: Lluvia débil
Clouds: Cubierto
Visibility: 4 km
Cloud details: Muy nuboso 305 m
Cubierto 610 m
2021/11/28 18:00 LEXJ 281800Z 26010KT 230V290 4000 -RA BKN010 OVC020 09/08 Q1014
LEAS - Asturias/Aviles, Spain
Distance from station: NO 214km
Actualización: Sun, 28-Nov-2021 7:00pm CET
Muy nuboso
Muy nuboso
 Viento del OSO
Viento: OSO 20 km/h
Temperatura: 9°C
Sensación frio: 6°C
Rocío: 8°C
Humedad: 94%
Barómetro: 1016 hPa
Clouds: Muy nuboso
Visibility: 10 km
Cloud details: Few Clouds 305 m
Muy nuboso 488 m
Muy nuboso 853 m
2021/11/28 18:00 LEAS 281800Z 24011KT 9999 FEW010 BKN016 BKN028 09/08 Q1016 TEMPO 4000 -RA BKN010
 
LECO - La Coruna/Alvedr, Spain
Distance from station: ONO 222km
Actualización: Sun, 28-Nov-2021 7:00pm CET
Muy nuboso
Muy nuboso
 Viento del NO
Viento: NO 26 km/h, Racha: 44 km/h
Temperatura: 12°C
Rocío: 11°C
Humedad: 94%
Barómetro: 1020 hPa
Clouds: Muy nuboso
Visibility: 7 km
Cloud details: Muy nuboso 335 m
2021/11/28 18:00 LECO 281800Z 32014G24KT 270V020 7000 BKN011 12/11 Q1020 TEMPO 3000 RA BKN010
LEVX - Vigo/Peinador, Spain
Distance from station: O 214km
Actualización: Sun, 28-Nov-2021 7:13pm CET
Patches of fog, Muy nuboso
Patches of fog, Muy nuboso
 Viento del ONO
Viento: ONO 15 km/h
Temperatura: 11°C
Rocío: 10°C
Humedad: 94%
Barómetro: 1021 hPa
Resumen: Patches of Fog
Clouds: Muy nuboso
Visibility: 6 km
Cloud details: Parcialmente nuboso 152 m
Muy nuboso 366 m
2021/11/28 18:13 LEVX 281813Z 30008KT 250V350 6000 BCFG SCT005 BKN012 11/10 Q1021 TEMPO 1500 BCFG